sensor_id;sensor_type;location;lat;lon;timestamp;temperature;humidity
66740;DHT22;53653;52.188;8.602;2023-02-11T00:01:08;6.04;85.19
66740;DHT22;53653;52.188;8.602;2023-02-11T00:03:35;6.07;85.14
66740;DHT22;53653;52.188;8.602;2023-02-11T00:06:03;6.09;85.31
66740;DHT22;53653;52.188;8.602;2023-02-11T00:08:29;6.11;85.32
66740;DHT22;53653;52.188;8.602;2023-02-11T00:10:56;6.10;85.59
66740;DHT22;53653;52.188;8.602;2023-02-11T00:13:22;6.10;85.54
66740;DHT22;53653;52.188;8.602;2023-02-11T00:15:48;6.17;85.51
66740;DHT22;53653;52.188;8.602;2023-02-11T00:18:14;6.18;85.54
66740;DHT22;53653;52.188;8.602;2023-02-11T00:20:40;6.22;85.39
66740;DHT22;53653;52.188;8.602;2023-02-11T00:23:06;6.21;85.39
66740;DHT22;53653;52.188;8.602;2023-02-11T00:25:31;6.22;85.61
66740;DHT22;53653;52.188;8.602;2023-02-11T00:27:57;6.24;85.63
66740;DHT22;53653;52.188;8.602;2023-02-11T00:30:23;6.21;85.65
66740;DHT22;53653;52.188;8.602;2023-02-11T00:32:48;6.31;85.64
66740;DHT22;53653;52.188;8.602;2023-02-11T00:35:14;6.27;85.78
66740;DHT22;53653;52.188;8.602;2023-02-11T00:37:40;6.32;85.87
66740;DHT22;53653;52.188;8.602;2023-02-11T00:40:06;6.32;85.92
66740;DHT22;53653;52.188;8.602;2023-02-11T00:42:31;6.28;86.08
66740;DHT22;53653;52.188;8.602;2023-02-11T00:45:00;6.34;86.24
66740;DHT22;53653;52.188;8.602;2023-02-11T00:47:26;6.31;86.39
66740;DHT22;53653;52.188;8.602;2023-02-11T00:49:52;6.32;86.43
66740;DHT22;53653;52.188;8.602;2023-02-11T00:52:18;6.28;86.60
66740;DHT22;53653;52.188;8.602;2023-02-11T00:54:43;6.27;86.66
66740;DHT22;53653;52.188;8.602;2023-02-11T00:57:09;6.35;86.48
66740;DHT22;53653;52.188;8.602;2023-02-11T00:59:34;6.31;86.59
66740;DHT22;53653;52.188;8.602;2023-02-11T01:02:00;6.30;86.74
66740;DHT22;53653;52.188;8.602;2023-02-11T01:04:26;6.37;86.65
66740;DHT22;53653;52.188;8.602;2023-02-11T01:06:52;6.34;86.74
66740;DHT22;53653;52.188;8.602;2023-02-11T01:09:17;6.35;86.92
66740;DHT22;53653;52.188;8.602;2023-02-11T01:11:45;6.41;86.95
66740;DHT22;53653;52.188;8.602;2023-02-11T01:14:11;6.37;87.21
66740;DHT22;53653;52.188;8.602;2023-02-11T01:16:38;6.31;87.28
66740;DHT22;53653;52.188;8.602;2023-02-11T01:19:04;6.27;87.42
66740;DHT22;53653;52.188;8.602;2023-02-11T01:21:29;6.25;87.41
66740;DHT22;53653;52.188;8.602;2023-02-11T01:23:55;6.31;87.40
66740;DHT22;53653;52.188;8.602;2023-02-11T01:26:20;6.30;87.43
66740;DHT22;53653;52.188;8.602;2023-02-11T01:28:46;6.27;87.61
66740;DHT22;53653;52.188;8.602;2023-02-11T01:31:13;6.31;87.55
66740;DHT22;53653;52.188;8.602;2023-02-11T01:33:38;6.34;87.58
66740;DHT22;53653;52.188;8.602;2023-02-11T01:36:05;6.30;87.73
66740;DHT22;53653;52.188;8.602;2023-02-11T01:38:31;6.28;87.82
66740;DHT22;53653;52.188;8.602;2023-02-11T01:41:05;6.28;87.87
66740;DHT22;53653;52.188;8.602;2023-02-11T01:43:34;6.30;87.86
66740;DHT22;53653;52.188;8.602;2023-02-11T01:48:47;6.30;88.05
66740;DHT22;53653;52.188;8.602;2023-02-11T01:51:19;6.30;88.14
66740;DHT22;53653;52.188;8.602;2023-02-11T01:53:45;6.27;88.32
66740;DHT22;53653;52.188;8.602;2023-02-11T01:56:30;6.28;88.33
66740;DHT22;53653;52.188;8.602;2023-02-11T01:59:53;6.27;88.48
66740;DHT22;53653;52.188;8.602;2023-02-11T02:03:11;6.24;88.69
66740;DHT22;53653;52.188;8.602;2023-02-11T02:05:16;6.22;88.63
66740;DHT22;53653;52.188;8.602;2023-02-11T02:10:54;6.22;88.82
66740;DHT22;53653;52.188;8.602;2023-02-11T02:13:21;6.24;88.81
66740;DHT22;53653;52.188;8.602;2023-02-11T02:15:52;6.24;88.90
66740;DHT22;53653;52.188;8.602;2023-02-11T02:23:42;6.17;89.14
66740;DHT22;53653;52.188;8.602;2023-02-11T02:35:09;6.18;89.48
66740;DHT22;53653;52.188;8.602;2023-02-11T02:39:51;6.21;89.54
66740;DHT22;53653;52.188;8.602;2023-02-11T02:42:18;6.16;89.62
66740;DHT22;53653;52.188;8.602;2023-02-11T02:44:49;6.18;89.61
66740;DHT22;53653;52.188;8.602;2023-02-11T02:47:15;6.17;89.79
66740;DHT22;53653;52.188;8.602;2023-02-11T02:49:40;6.16;89.92
66740;DHT22;53653;52.188;8.602;2023-02-11T02:54:51;6.11;90.10
66740;DHT22;53653;52.188;8.602;2023-02-11T03:00:30;6.13;90.33
66740;DHT22;53653;52.188;8.602;2023-02-11T03:11:00;6.07;90.94
66740;DHT22;53653;52.188;8.602;2023-02-11T03:13:30;6.10;90.99
66740;DHT22;53653;52.188;8.602;2023-02-11T03:16:33;6.09;90.99
66740;DHT22;53653;52.188;8.602;2023-02-11T03:18:58;6.04;91.11
66740;DHT22;53653;52.188;8.602;2023-02-11T03:21:29;6.06;91.20
66740;DHT22;53653;52.188;8.602;2023-02-11T03:24:05;6.07;91.25
66740;DHT22;53653;52.188;8.602;2023-02-11T03:26:39;6.01;91.35
66740;DHT22;53653;52.188;8.602;2023-02-11T03:29:32;5.99;91.55
66740;DHT22;53653;52.188;8.602;2023-02-11T03:32:11;6.04;91.59
66740;DHT22;53653;52.188;8.602;2023-02-11T03:37:15;6.01;91.95
66740;DHT22;53653;52.188;8.602;2023-02-11T03:39:49;5.97;91.99
66740;DHT22;53653;52.188;8.602;2023-02-11T03:42:16;5.97;92.12
66740;DHT22;53653;52.188;8.602;2023-02-11T03:44:50;5.96;92.09
66740;DHT22;53653;52.188;8.602;2023-02-11T03:47:20;5.96;92.23
66740;DHT22;53653;52.188;8.602;2023-02-11T03:49:48;5.99;92.23
66740;DHT22;53653;52.188;8.602;2023-02-11T03:52:17;5.93;92.32
66740;DHT22;53653;52.188;8.602;2023-02-11T03:54:45;5.94;92.31
66740;DHT22;53653;52.188;8.602;2023-02-11T03:57:13;5.89;92.44
66740;DHT22;53653;52.188;8.602;2023-02-11T03:59:53;5.93;92.32
66740;DHT22;53653;52.188;8.602;2023-02-11T04:02:24;5.94;92.18
66740;DHT22;53653;52.188;8.602;2023-02-11T04:04:51;5.93;92.31
66740;DHT22;53653;52.188;8.602;2023-02-11T04:07:16;5.89;92.27
66740;DHT22;53653;52.188;8.602;2023-02-11T04:09:42;5.91;92.19
66740;DHT22;53653;52.188;8.602;2023-02-11T04:12:07;5.93;92.09
66740;DHT22;53653;52.188;8.602;2023-02-11T04:14:33;5.91;92.01
66740;DHT22;53653;52.188;8.602;2023-02-11T04:16:59;5.94;92.00
66740;DHT22;53653;52.188;8.602;2023-02-11T04:19:24;5.93;92.07
66740;DHT22;53653;52.188;8.602;2023-02-11T04:21:50;5.94;91.98
66740;DHT22;53653;52.188;8.602;2023-02-11T04:24:15;5.90;92.01
66740;DHT22;53653;52.188;8.602;2023-02-11T04:26:41;5.93;91.91
66740;DHT22;53653;52.188;8.602;2023-02-11T04:29:07;5.96;91.88
66740;DHT22;53653;52.188;8.602;2023-02-11T04:31:32;5.93;91.87
66740;DHT22;53653;52.188;8.602;2023-02-11T04:33:58;5.93;91.64
66740;DHT22;53653;52.188;8.602;2023-02-11T04:36:23;5.99;91.58
66740;DHT22;53653;52.188;8.602;2023-02-11T04:38:49;5.97;91.51
66740;DHT22;53653;52.188;8.602;2023-02-11T04:41:14;6.00;91.32
66740;DHT22;53653;52.188;8.602;2023-02-11T04:43:40;6.00;91.19
66740;DHT22;53653;52.188;8.602;2023-02-11T04:46:05;6.01;91.03
66740;DHT22;53653;52.188;8.602;2023-02-11T04:48:31;6.03;90.88
66740;DHT22;53653;52.188;8.602;2023-02-11T04:50:56;6.09;90.68
66740;DHT22;53653;52.188;8.602;2023-02-11T04:53:22;6.10;90.60
66740;DHT22;53653;52.188;8.602;2023-02-11T04:55:48;6.09;90.42
66740;DHT22;53653;52.188;8.602;2023-02-11T04:58:15;6.10;90.33
66740;DHT22;53653;52.188;8.602;2023-02-11T05:00:41;6.13;90.26
66740;DHT22;53653;52.188;8.602;2023-02-11T05:03:06;6.10;90.15
66740;DHT22;53653;52.188;8.602;2023-02-11T05:05:32;6.11;90.04
66740;DHT22;53653;52.188;8.602;2023-02-11T05:07:57;6.14;90.01
66740;DHT22;53653;52.188;8.602;2023-02-11T05:10:23;6.13;89.85
66740;DHT22;53653;52.188;8.602;2023-02-11T05:12:48;6.10;89.92
66740;DHT22;53653;52.188;8.602;2023-02-11T05:15:14;6.13;89.84
66740;DHT22;53653;52.188;8.602;2023-02-11T05:17:40;6.14;89.71
66740;DHT22;53653;52.188;8.602;2023-02-11T05:20:06;6.11;89.63
66740;DHT22;53653;52.188;8.602;2023-02-11T05:22:31;6.11;89.66
66740;DHT22;53653;52.188;8.602;2023-02-11T05:24:57;6.16;89.55
66740;DHT22;53653;52.188;8.602;2023-02-11T05:27:22;6.16;89.49
66740;DHT22;53653;52.188;8.602;2023-02-11T05:29:48;6.16;89.44
66740;DHT22;53653;52.188;8.602;2023-02-11T05:32:13;6.17;89.46
66740;DHT22;53653;52.188;8.602;2023-02-11T05:34:39;6.17;89.33
66740;DHT22;53653;52.188;8.602;2023-02-11T05:37:05;6.20;89.27
66740;DHT22;53653;52.188;8.602;2023-02-11T05:39:30;6.20;89.11
66740;DHT22;53653;52.188;8.602;2023-02-11T05:41:56;6.20;89.14
66740;DHT22;53653;52.188;8.602;2023-02-11T05:44:21;6.21;89.20
66740;DHT22;53653;52.188;8.602;2023-02-11T05:46:47;6.22;89.11
66740;DHT22;53653;52.188;8.602;2023-02-11T05:49:15;6.21;89.19
66740;DHT22;53653;52.188;8.602;2023-02-11T05:51:40;6.27;89.07
66740;DHT22;53653;52.188;8.602;2023-02-11T05:54:06;6.22;89.17
66740;DHT22;53653;52.188;8.602;2023-02-11T05:56:32;6.24;89.08
66740;DHT22;53653;52.188;8.602;2023-02-11T05:58:58;6.24;89.24
66740;DHT22;53653;52.188;8.602;2023-02-11T06:01:25;6.28;89.15
66740;DHT22;53653;52.188;8.602;2023-02-11T06:03:50;6.32;88.98
66740;DHT22;53653;52.188;8.602;2023-02-11T06:06:16;6.27;89.15
66740;DHT22;53653;52.188;8.602;2023-02-11T06:08:41;6.31;89.14
66740;DHT22;53653;52.188;8.602;2023-02-11T06:11:07;6.34;88.92
66740;DHT22;53653;52.188;8.602;2023-02-11T06:13:33;6.27;89.15
66740;DHT22;53653;52.188;8.602;2023-02-11T06:16:00;6.35;89.02
66740;DHT22;53653;52.188;8.602;2023-02-11T06:18:26;6.32;88.97
66740;DHT22;53653;52.188;8.602;2023-02-11T06:20:52;6.31;89.04
66740;DHT22;53653;52.188;8.602;2023-02-11T06:23:18;6.31;89.10
66740;DHT22;53653;52.188;8.602;2023-02-11T06:25:43;6.34;88.94
66740;DHT22;53653;52.188;8.602;2023-02-11T06:28:09;6.32;89.04
66740;DHT22;53653;52.188;8.602;2023-02-11T06:30:36;6.28;89.14
66740;DHT22;53653;52.188;8.602;2023-02-11T06:33:01;6.28;89.20
66740;DHT22;53653;52.188;8.602;2023-02-11T06:35:27;6.34;89.13
66740;DHT22;53653;52.188;8.602;2023-02-11T06:37:53;6.34;89.17
66740;DHT22;53653;52.188;8.602;2023-02-11T06:40:19;6.31;89.23
66740;DHT22;53653;52.188;8.602;2023-02-11T06:42:44;6.34;89.25
66740;DHT22;53653;52.188;8.602;2023-02-11T06:45:10;6.31;89.29
66740;DHT22;53653;52.188;8.602;2023-02-11T06:47:38;6.34;89.27
66740;DHT22;53653;52.188;8.602;2023-02-11T06:50:06;6.31;89.24
66740;DHT22;53653;52.188;8.602;2023-02-11T06:52:32;6.28;89.34
66740;DHT22;53653;52.188;8.602;2023-02-11T06:54:58;6.28;89.35
66740;DHT22;53653;52.188;8.602;2023-02-11T06:57:24;6.31;89.40
66740;DHT22;53653;52.188;8.602;2023-02-11T06:59:50;6.32;89.36
66740;DHT22;53653;52.188;8.602;2023-02-11T07:02:15;6.34;89.35
66740;DHT22;53653;52.188;8.602;2023-02-11T07:04:41;6.30;89.47
66740;DHT22;53653;52.188;8.602;2023-02-11T07:07:07;6.32;89.34
66740;DHT22;53653;52.188;8.602;2023-02-11T07:09:32;6.28;89.55
66740;DHT22;53653;52.188;8.602;2023-02-11T07:11:58;6.30;89.58
66740;DHT22;53653;52.188;8.602;2023-02-11T07:14:23;6.27;89.46
66740;DHT22;53653;52.188;8.602;2023-02-11T07:16:49;6.27;89.63
66740;DHT22;53653;52.188;8.602;2023-02-11T07:19:15;6.25;89.72
66740;DHT22;53653;52.188;8.602;2023-02-11T07:21:41;6.27;89.74
66740;DHT22;53653;52.188;8.602;2023-02-11T07:24:07;6.30;89.73
66740;DHT22;53653;52.188;8.602;2023-02-11T07:26:33;6.31;89.60
66740;DHT22;53653;52.188;8.602;2023-02-11T07:28:59;6.31;89.63
66740;DHT22;53653;52.188;8.602;2023-02-11T07:31:27;6.31;89.78
66740;DHT22;53653;52.188;8.602;2023-02-11T07:33:57;6.28;89.81
66740;DHT22;53653;52.188;8.602;2023-02-11T07:36:24;6.31;89.88
66740;DHT22;53653;52.188;8.602;2023-02-11T07:38:51;6.24;89.97
66740;DHT22;53653;52.188;8.602;2023-02-11T07:41:19;6.24;90.05
66740;DHT22;53653;52.188;8.602;2023-02-11T07:43:45;6.28;89.99
66740;DHT22;53653;52.188;8.602;2023-02-11T07:46:14;6.32;89.98
66740;DHT22;53653;52.188;8.602;2023-02-11T07:48:40;6.32;89.99
66740;DHT22;53653;52.188;8.602;2023-02-11T07:51:11;6.32;90.06
66740;DHT22;53653;52.188;8.602;2023-02-11T07:53:37;6.31;90.05
66740;DHT22;53653;52.188;8.602;2023-02-11T07:56:04;6.30;90.16
66740;DHT22;53653;52.188;8.602;2023-02-11T07:58:31;6.32;90.28
66740;DHT22;53653;52.188;8.602;2023-02-11T08:01:01;6.31;90.13
66740;DHT22;53653;52.188;8.602;2023-02-11T08:03:27;6.34;90.15
66740;DHT22;53653;52.188;8.602;2023-02-11T08:05:52;6.31;90.30
66740;DHT22;53653;52.188;8.602;2023-02-11T08:08:18;6.31;90.36
66740;DHT22;53653;52.188;8.602;2023-02-11T08:10:43;6.31;90.34
66740;DHT22;53653;52.188;8.602;2023-02-11T08:13:09;6.31;90.33
66740;DHT22;53653;52.188;8.602;2023-02-11T08:15:35;6.32;90.39
66740;DHT22;53653;52.188;8.602;2023-02-11T08:18:00;6.34;90.30
66740;DHT22;53653;52.188;8.602;2023-02-11T08:20:26;6.35;90.26
66740;DHT22;53653;52.188;8.602;2023-02-11T08:22:51;6.31;90.47
66740;DHT22;53653;52.188;8.602;2023-02-11T08:25:17;6.31;90.38
66740;DHT22;53653;52.188;8.602;2023-02-11T08:27:43;6.32;90.51
66740;DHT22;53653;52.188;8.602;2023-02-11T08:30:09;6.28;90.55
66740;DHT22;53653;52.188;8.602;2023-02-11T08:32:34;6.28;90.63
66740;DHT22;53653;52.188;8.602;2023-02-11T08:35:00;6.34;90.63
66740;DHT22;53653;52.188;8.602;2023-02-11T08:37:26;6.32;90.58
66740;DHT22;53653;52.188;8.602;2023-02-11T08:39:51;6.37;90.67
66740;DHT22;53653;52.188;8.602;2023-02-11T08:42:17;6.35;90.77
66740;DHT22;53653;52.188;8.602;2023-02-11T08:44:43;6.35;90.84
66740;DHT22;53653;52.188;8.602;2023-02-11T08:47:08;6.39;90.95
66740;DHT22;53653;52.188;8.602;2023-02-11T08:49:34;6.45;90.83
66740;DHT22;53653;52.188;8.602;2023-02-11T08:52:00;6.44;90.85
66740;DHT22;53653;52.188;8.602;2023-02-11T08:54:31;6.45;90.99
66740;DHT22;53653;52.188;8.602;2023-02-11T08:56:57;6.45;90.99
66740;DHT22;53653;52.188;8.602;2023-02-11T08:59:23;6.45;91.03
66740;DHT22;53653;52.188;8.602;2023-02-11T09:01:48;6.46;91.00
66740;DHT22;53653;52.188;8.602;2023-02-11T09:04:14;6.51;91.07
66740;DHT22;53653;52.188;8.602;2023-02-11T09:06:40;6.48;91.05
66740;DHT22;53653;52.188;8.602;2023-02-11T09:09:09;6.51;91.08
66740;DHT22;53653;52.188;8.602;2023-02-11T09:11:35;6.52;91.01
66740;DHT22;53653;52.188;8.602;2023-02-11T09:14:02;6.55;90.98
66740;DHT22;53653;52.188;8.602;2023-02-11T09:16:32;6.55;90.90
66740;DHT22;53653;52.188;8.602;2023-02-11T09:18:59;6.53;91.04
66740;DHT22;53653;52.188;8.602;2023-02-11T09:21:26;6.58;91.01
66740;DHT22;53653;52.188;8.602;2023-02-11T09:23:51;6.56;91.01
66740;DHT22;53653;52.188;8.602;2023-02-11T09:26:22;6.56;91.03
66740;DHT22;53653;52.188;8.602;2023-02-11T09:28:49;6.62;90.96
66740;DHT22;53653;52.188;8.602;2023-02-11T09:31:21;6.64;90.85
66740;DHT22;53653;52.188;8.602;2023-02-11T09:33:49;6.62;90.87
66740;DHT22;53653;52.188;8.602;2023-02-11T09:36:20;6.61;90.98
66740;DHT22;53653;52.188;8.602;2023-02-11T09:38:47;6.59;91.05
66740;DHT22;53653;52.188;8.602;2023-02-11T09:43:58;6.65;91.01
66740;DHT22;53653;52.188;8.602;2023-02-11T09:46:26;6.68;90.88
66740;DHT22;53653;52.188;8.602;2023-02-11T09:48:55;6.69;91.03
66740;DHT22;53653;52.188;8.602;2023-02-11T09:54:21;6.69;91.22
66740;DHT22;53653;52.188;8.602;2023-02-11T09:56:47;6.73;91.27
66740;DHT22;53653;52.188;8.602;2023-02-11T09:59:14;6.75;91.31
66740;DHT22;53653;52.188;8.602;2023-02-11T10:01:49;6.78;91.31
66740;DHT22;53653;52.188;8.602;2023-02-11T10:04:22;6.80;91.52
66740;DHT22;53653;52.188;8.602;2023-02-11T10:06:55;6.80;91.41
66740;DHT22;53653;52.188;8.602;2023-02-11T10:22:36;6.75;92.48
66740;DHT22;53653;52.188;8.602;2023-02-11T10:25:21;6.78;92.39
66740;DHT22;53653;52.188;8.602;2023-02-11T10:27:47;6.80;92.64
66740;DHT22;53653;52.188;8.602;2023-02-11T10:30:33;6.78;92.75
66740;DHT22;53653;52.188;8.602;2023-02-11T10:33:22;6.78;92.89
66740;DHT22;53653;52.188;8.602;2023-02-11T10:35:49;6.78;93.11
66740;DHT22;53653;52.188;8.602;2023-02-11T10:38:15;6.76;93.26
66740;DHT22;53653;52.188;8.602;2023-02-11T10:40:41;6.79;93.27
66740;DHT22;53653;52.188;8.602;2023-02-11T10:43:11;6.79;93.47
66740;DHT22;53653;52.188;8.602;2023-02-11T10:48:43;6.85;93.34
66740;DHT22;53653;52.188;8.602;2023-02-11T10:53:38;6.89;93.48
66740;DHT22;53653;52.188;8.602;2023-02-11T10:56:05;6.89;93.45
66740;DHT22;53653;52.188;8.602;2023-02-11T10:58:44;6.89;93.59
66740;DHT22;53653;52.188;8.602;2023-02-11T11:01:10;6.95;93.66
66740;DHT22;53653;52.188;8.602;2023-02-11T11:03:46;6.92;93.60
66740;DHT22;53653;52.188;8.602;2023-02-11T11:06:13;6.96;93.70
66740;DHT22;53653;52.188;8.602;2023-02-11T11:08:47;6.96;93.71
66740;DHT22;53653;52.188;8.602;2023-02-11T11:11:16;7.03;93.54
66740;DHT22;53653;52.188;8.602;2023-02-11T11:19:30;7.03;93.42
66740;DHT22;53653;52.188;8.602;2023-02-11T11:21:53;7.08;93.31
66740;DHT22;53653;52.188;8.602;2023-02-11T11:26:50;7.10;93.28
66740;DHT22;53653;52.188;8.602;2023-02-11T11:29:45;7.08;93.16
66740;DHT22;53653;52.188;8.602;2023-02-11T11:32:29;7.11;92.96
66740;DHT22;53653;52.188;8.602;2023-02-11T11:35:04;7.14;92.99
66740;DHT22;53653;52.188;8.602;2023-02-11T11:37:35;7.20;92.61
66740;DHT22;53653;52.188;8.602;2023-02-11T11:42:36;7.24;92.55
66740;DHT22;53653;52.188;8.602;2023-02-11T11:50:29;7.27;92.08
66740;DHT22;53653;52.188;8.602;2023-02-11T11:53:12;7.34;91.87
66740;DHT22;53653;52.188;8.602;2023-02-11T11:55:45;7.40;91.84
66740;DHT22;53653;52.188;8.602;2023-02-11T11:58:15;7.44;91.59
66740;DHT22;53653;52.188;8.602;2023-02-11T12:00:56;7.41;91.47
66740;DHT22;53653;52.188;8.602;2023-02-11T12:08:40;7.51;91.30
66740;DHT22;53653;52.188;8.602;2023-02-11T12:13:45;7.52;91.07
66740;DHT22;53653;52.188;8.602;2023-02-11T12:24:52;7.65;90.87
66740;DHT22;53653;52.188;8.602;2023-02-11T12:28:13;7.64;90.84
66740;DHT22;53653;52.188;8.602;2023-02-11T12:49:50;7.78;90.29
66740;DHT22;53653;52.188;8.602;2023-02-11T12:52:43;7.79;90.38
66740;DHT22;53653;52.188;8.602;2023-02-11T12:57:40;7.79;90.43
66740;DHT22;53653;52.188;8.602;2023-02-11T13:00:16;7.86;90.17
66740;DHT22;53653;52.188;8.602;2023-02-11T13:03:06;7.86;90.18
66740;DHT22;53653;52.188;8.602;2023-02-11T13:10:46;7.90;89.97
66740;DHT22;53653;52.188;8.602;2023-02-11T13:13:18;7.89;89.97
66740;DHT22;53653;52.188;8.602;2023-02-11T13:15:58;7.96;89.89
66740;DHT22;53653;52.188;8.602;2023-02-11T13:24:21;8.00;89.81
66740;DHT22;53653;52.188;8.602;2023-02-11T13:27:09;8.00;89.64
66740;DHT22;53653;52.188;8.602;2023-02-11T13:32:24;8.06;89.32
66740;DHT22;53653;52.188;8.602;2023-02-11T13:34:54;8.05;89.42
66740;DHT22;53653;52.188;8.602;2023-02-11T13:40:05;8.07;89.29
66740;DHT22;53653;52.188;8.602;2023-02-11T13:42:33;8.10;89.26
66740;DHT22;53653;52.188;8.602;2023-02-11T13:44:59;8.12;89.23
66740;DHT22;53653;52.188;8.602;2023-02-11T13:47:29;8.17;88.89
66740;DHT22;53653;52.188;8.602;2023-02-11T13:49:56;8.16;89.01
66740;DHT22;53653;52.188;8.602;2023-02-11T13:54:56;8.17;89.01
66740;DHT22;53653;52.188;8.602;2023-02-11T13:57:28;8.22;89.11
66740;DHT22;53653;52.188;8.602;2023-02-11T13:59:59;8.23;88.97
66740;DHT22;53653;52.188;8.602;2023-02-11T14:02:32;8.24;88.78
66740;DHT22;53653;52.188;8.602;2023-02-11T14:05:27;8.20;88.86
66740;DHT22;53653;52.188;8.602;2023-02-11T14:08:12;8.23;88.90
66740;DHT22;53653;52.188;8.602;2023-02-11T14:11:41;8.24;88.93
66740;DHT22;53653;52.188;8.602;2023-02-11T14:14:23;8.23;88.78
66740;DHT22;53653;52.188;8.602;2023-02-11T14:19:41;8.33;88.73
66740;DHT22;53653;52.188;8.602;2023-02-11T14:27:26;8.34;88.75
66740;DHT22;53653;52.188;8.602;2023-02-11T14:35:58;8.34;88.66
66740;DHT22;53653;52.188;8.602;2023-02-11T14:41:06;8.33;88.79
66740;DHT22;53653;52.188;8.602;2023-02-11T14:43:38;8.34;88.86
66740;DHT22;53653;52.188;8.602;2023-02-11T14:46:04;8.32;88.84
66740;DHT22;53653;52.188;8.602;2023-02-11T14:48:33;8.34;88.96
66740;DHT22;53653;52.188;8.602;2023-02-11T14:51:15;8.34;88.87
66740;DHT22;53653;52.188;8.602;2023-02-11T14:53:46;8.36;88.92
66740;DHT22;53653;52.188;8.602;2023-02-11T14:56:18;8.36;88.89
66740;DHT22;53653;52.188;8.602;2023-02-11T14:58:46;8.37;88.77
66740;DHT22;53653;52.188;8.602;2023-02-11T15:01:41;8.38;88.79
66740;DHT22;53653;52.188;8.602;2023-02-11T15:04:30;8.43;88.61
66740;DHT22;53653;52.188;8.602;2023-02-11T15:06:58;8.43;88.64
66740;DHT22;53653;52.188;8.602;2023-02-11T15:09:41;8.41;88.69
66740;DHT22;53653;52.188;8.602;2023-02-11T15:12:23;8.43;88.71
66740;DHT22;53653;52.188;8.602;2023-02-11T15:14:52;8.43;88.73
66740;DHT22;53653;52.188;8.602;2023-02-11T15:17:24;8.43;88.86
66740;DHT22;53653;52.188;8.602;2023-02-11T15:19:53;8.44;88.71
66740;DHT22;53653;52.188;8.602;2023-02-11T15:22:31;8.47;88.59
66740;DHT22;53653;52.188;8.602;2023-02-11T15:25:09;8.51;88.53
66740;DHT22;53653;52.188;8.602;2023-02-11T15:27:51;8.47;88.69
66740;DHT22;53653;52.188;8.602;2023-02-11T15:30:30;8.51;88.55
66740;DHT22;53653;52.188;8.602;2023-02-11T15:32:58;8.51;88.57
66740;DHT22;53653;52.188;8.602;2023-02-11T15:35:26;8.50;88.51
66740;DHT22;53653;52.188;8.602;2023-02-11T15:37:54;8.55;88.42
66740;DHT22;53653;52.188;8.602;2023-02-11T15:40:26;8.53;88.46
66740;DHT22;53653;52.188;8.602;2023-02-11T15:45:51;8.48;88.49
66740;DHT22;53653;52.188;8.602;2023-02-11T15:48:23;8.55;88.39
66740;DHT22;53653;52.188;8.602;2023-02-11T15:51:00;8.53;88.45
66740;DHT22;53653;52.188;8.602;2023-02-11T15:53:31;8.57;88.40
66740;DHT22;53653;52.188;8.602;2023-02-11T15:58:40;8.55;88.37
66740;DHT22;53653;52.188;8.602;2023-02-11T16:01:07;8.61;88.28
66740;DHT22;53653;52.188;8.602;2023-02-11T16:03:34;8.55;88.40
66740;DHT22;53653;52.188;8.602;2023-02-11T16:06:21;8.55;88.36
66740;DHT22;53653;52.188;8.602;2023-02-11T16:09:21;8.55;88.36
66740;DHT22;53653;52.188;8.602;2023-02-11T16:16:55;8.60;88.34
66740;DHT22;53653;52.188;8.602;2023-02-11T16:19:23;8.64;88.22
66740;DHT22;53653;52.188;8.602;2023-02-11T16:21:50;8.57;88.22
66740;DHT22;53653;52.188;8.602;2023-02-11T16:24:22;8.54;88.37
66740;DHT22;53653;52.188;8.602;2023-02-11T16:26:51;8.61;88.27
66740;DHT22;53653;52.188;8.602;2023-02-11T16:29:26;8.58;88.31
66740;DHT22;53653;52.188;8.602;2023-02-11T16:31:53;8.61;88.32
66740;DHT22;53653;52.188;8.602;2023-02-11T16:34:28;8.63;88.19
66740;DHT22;53653;52.188;8.602;2023-02-11T16:36:54;8.58;88.15
66740;DHT22;53653;52.188;8.602;2023-02-11T16:39:20;8.58;88.25
66740;DHT22;53653;52.188;8.602;2023-02-11T16:52:49;8.58;88.36
66740;DHT22;53653;52.188;8.602;2023-02-11T16:55:37;8.55;88.42
66740;DHT22;53653;52.188;8.602;2023-02-11T16:58:24;8.53;88.46
66740;DHT22;53653;52.188;8.602;2023-02-11T17:01:10;8.50;88.60
66740;DHT22;53653;52.188;8.602;2023-02-11T17:03:37;8.53;88.53
66740;DHT22;53653;52.188;8.602;2023-02-11T17:06:09;8.48;88.71
66740;DHT22;53653;52.188;8.602;2023-02-11T17:08:35;8.48;88.78
66740;DHT22;53653;52.188;8.602;2023-02-11T17:11:02;8.45;88.85
66740;DHT22;53653;52.188;8.602;2023-02-11T17:13:27;8.50;88.75
66740;DHT22;53653;52.188;8.602;2023-02-11T17:15:53;8.51;88.58
66740;DHT22;53653;52.188;8.602;2023-02-11T17:18:19;8.44;88.84
66740;DHT22;53653;52.188;8.602;2023-02-11T17:20:44;8.44;88.96
66740;DHT22;53653;52.188;8.602;2023-02-11T17:23:10;8.47;89.04
66740;DHT22;53653;52.188;8.602;2023-02-11T17:25:35;8.48;88.85
66740;DHT22;53653;52.188;8.602;2023-02-11T17:28:03;8.50;88.80
66740;DHT22;53653;52.188;8.602;2023-02-11T17:30:29;8.53;88.67
66740;DHT22;53653;52.188;8.602;2023-02-11T17:32:54;8.50;88.78
66740;DHT22;53653;52.188;8.602;2023-02-11T17:35:20;8.55;88.63
66740;DHT22;53653;52.188;8.602;2023-02-11T17:37:46;8.50;88.61
66740;DHT22;53653;52.188;8.602;2023-02-11T17:40:12;8.48;88.78
66740;DHT22;53653;52.188;8.602;2023-02-11T17:42:38;8.51;88.71
66740;DHT22;53653;52.188;8.602;2023-02-11T17:45:04;8.53;88.62
66740;DHT22;53653;52.188;8.602;2023-02-11T17:47:30;8.51;88.75
66740;DHT22;53653;52.188;8.602;2023-02-11T17:49:55;8.54;88.63
66740;DHT22;53653;52.188;8.602;2023-02-11T17:52:21;8.55;88.74
66740;DHT22;53653;52.188;8.602;2023-02-11T17:54:49;8.47;88.85
66740;DHT22;53653;52.188;8.602;2023-02-11T17:57:14;8.51;88.78
66740;DHT22;53653;52.188;8.602;2023-02-11T17:59:40;8.51;88.76
66740;DHT22;53653;52.188;8.602;2023-02-11T18:02:06;8.50;88.82
66740;DHT22;53653;52.188;8.602;2023-02-11T18:04:32;8.53;88.74
66740;DHT22;53653;52.188;8.602;2023-02-11T18:06:58;8.55;88.85
66740;DHT22;53653;52.188;8.602;2023-02-11T18:09:25;8.48;88.92
66740;DHT22;53653;52.188;8.602;2023-02-11T18:11:51;8.53;88.82
66740;DHT22;53653;52.188;8.602;2023-02-11T18:14:20;8.58;88.74
66740;DHT22;53653;52.188;8.602;2023-02-11T18:16:52;8.60;88.67
66740;DHT22;53653;52.188;8.602;2023-02-11T18:19:18;8.60;88.61
66740;DHT22;53653;52.188;8.602;2023-02-11T18:21:44;8.55;88.70
66740;DHT22;53653;52.188;8.602;2023-02-11T18:24:13;8.51;88.86
66740;DHT22;53653;52.188;8.602;2023-02-11T18:26:39;8.53;88.92
66740;DHT22;53653;52.188;8.602;2023-02-11T18:29:06;8.54;88.90
66740;DHT22;53653;52.188;8.602;2023-02-11T18:31:32;8.54;88.84
66740;DHT22;53653;52.188;8.602;2023-02-11T18:34:00;8.55;88.84
66740;DHT22;53653;52.188;8.602;2023-02-11T18:36:26;8.61;88.67
66740;DHT22;53653;52.188;8.602;2023-02-11T18:38:52;8.61;88.60
66740;DHT22;53653;52.188;8.602;2023-02-11T18:41:19;8.58;88.62
66740;DHT22;53653;52.188;8.602;2023-02-11T18:43:45;8.60;88.74
66740;DHT22;53653;52.188;8.602;2023-02-11T18:46:13;8.53;89.02
66740;DHT22;53653;52.188;8.602;2023-02-11T18:48:39;8.45;89.09
66740;DHT22;53653;52.188;8.602;2023-02-11T18:51:10;8.57;88.86
66740;DHT22;53653;52.188;8.602;2023-02-11T18:53:36;8.55;88.88